Time;durP1;ratioP1;P1;durP2;ratioP2;P2;SDS_P1;SDS_P2;PMS_P1;PMS_P2;Temp;Humidity;BMP_temperature;BMP_pressure;BME280_temperature;BME280_humidity;BME280_pressure;Samples;Min_cycle;Max_cycle;Signal;HPM_P1;HPM_P2
2021/05/10 00:01:28;;;;;;;1.20;1.20;;;17.00;78.80;;;;;;5053611;28;20485;-83
2021/05/10 00:03:55;;;;;;;1.73;1.63;;;17.10;77.90;;;;;;5053551;28;20449;-83
2021/05/10 00:06:22;;;;;;;1.67;1.50;;;17.10;78.20;;;;;;5053539;28;20492;-83
2021/05/10 00:08:48;;;;;;;2.80;1.40;;;17.10;76.70;;;;;;5053705;28;20468;-83
2021/05/10 00:11:15;;;;;;;3.70;1.37;;;17.10;76.10;;;;;;5053947;28;20449;-83
2021/05/10 00:13:45;;;;;;;1.80;1.60;;;17.10;74.50;;;;;;5053495;28;20790;-83
2021/05/10 00:16:11;;;;;;;1.87;1.77;;;17.20;74.70;;;;;;5053767;28;20449;-83
2021/05/10 00:18:37;;;;;;;1.37;1.27;;;17.20;75.50;;;;;;5053460;28;20472;-83
2021/05/10 00:21:04;;;;;;;1.57;1.47;;;17.20;76.10;;;;;;5053218;28;20481;-83
2021/05/10 00:23:32;;;;;;;1.20;1.20;;;17.20;74.40;;;;;;5053420;28;20840;-83
2021/05/10 00:25:58;;;;;;;2.77;1.43;;;17.20;76.40;;;;;;5053488;28;20515;-83
2021/05/10 00:28:24;;;;;;;1.67;1.57;;;17.00;76.90;;;;;;5053228;28;20466;-83
2021/05/10 00:30:50;;;;;;;1.43;1.33;;;17.00;76.00;;;;;;5053308;28;20470;-83
2021/05/10 00:33:17;;;;;;;1.10;1.10;;;17.00;75.20;;;;;;5053170;28;20972;-83
2021/05/10 00:35:43;;;;;;;1.37;1.27;;;16.90;76.60;;;;;;5053342;28;20448;-84
2021/05/10 00:38:10;;;;;;;2.47;1.47;;;16.80;77.20;;;;;;5053197;28;20875;-83
2021/05/10 00:40:37;;;;;;;1.40;1.30;;;16.80;77.90;;;;;;5053234;28;20489;-83
2021/05/10 00:43:03;;;;;;;2.63;1.73;;;16.70;79.00;;;;;;5053098;28;20953;-83
2021/05/10 00:45:30;;;;;;;1.40;1.30;;;16.70;78.50;;;;;;5052944;28;20446;-83
2021/05/10 00:47:56;;;;;;;1.20;1.20;;;16.60;78.20;;;;;;5056484;28;20470;-82
2021/05/10 00:50:24;;;;;;;1.53;1.43;;;16.50;80.30;;;;;;5067809;28;20890;-83
2021/05/10 00:52:51;;;;;;;1.97;1.27;;;16.40;79.60;;;;;;5058789;28;20446;-82
2021/05/10 00:55:18;;;;;;;1.40;1.30;;;16.40;77.80;;;;;;5055785;28;20453;-83
2021/05/10 00:57:49;;;;;;;1.13;1.13;;;16.40;77.00;;;;;;5053981;28;20469;-83
2021/05/10 01:00:16;;;;;;;1.63;1.53;;;16.30;77.40;;;;;;5054166;28;20472;-83
2021/05/10 01:02:44;;;;;;;1.30;1.30;;;16.30;78.70;;;;;;5056965;28;20999;-83
2021/05/10 01:05:12;;;;;;;1.40;1.30;;;16.30;78.50;;;;;;5056832;28;20888;-84
2021/05/10 01:07:38;;;;;;;1.50;1.40;;;16.20;79.40;;;;;;5056794;28;20466;-83
2021/05/10 01:10:08;;;;;;;1.43;1.43;;;16.20;79.60;;;;;;5056576;28;20957;-84
2021/05/10 01:12:35;;;;;;;1.60;1.50;;;16.10;80.00;;;;;;5056666;28;20445;-83
2021/05/10 01:15:03;;;;;;;1.50;1.40;;;16.00;81.90;;;;;;5056705;28;20437;-83
2021/05/10 01:17:29;;;;;;;1.20;1.07;;;16.00;82.50;;;;;;5056273;28;20985;-83
2021/05/10 01:19:56;;;;;;;2.40;1.60;;;15.90;83.10;;;;;;5056238;28;21010;-84
2021/05/10 01:22:23;;;;;;;1.53;1.43;;;15.80;83.70;;;;;;5056451;28;20448;-84
2021/05/10 01:24:50;;;;;;;1.37;1.30;;;15.70;84.80;;;;;;5056399;28;20941;-84
2021/05/10 01:27:16;;;;;;;2.17;1.40;;;15.60;84.10;;;;;;5056449;28;20445;-84
2021/05/10 01:29:43;;;;;;;2.30;1.30;;;15.60;84.20;;;;;;5056267;28;20941;-84
2021/05/10 01:32:09;;;;;;;2.07;1.83;;;15.60;84.00;;;;;;5056357;28;20818;-84
2021/05/10 01:34:35;;;;;;;1.90;1.37;;;15.60;84.70;;;;;;5056318;28;20445;-84
2021/05/10 01:37:02;;;;;;;1.50;1.40;;;15.50;84.30;;;;;;5056180;28;21083;-84
2021/05/10 01:39:28;;;;;;;1.87;1.77;;;15.50;83.40;;;;;;5055911;28;20949;-83
2021/05/10 01:41:55;;;;;;;1.47;1.37;;;15.50;84.40;;;;;;5056191;28;20441;-84
2021/05/10 01:44:21;;;;;;;2.20;1.40;;;15.40;84.20;;;;;;5055927;28;20945;-84
2021/05/10 01:46:48;;;;;;;2.00;1.20;;;15.40;84.20;;;;;;5056231;28;20438;-84
2021/05/10 01:49:14;;;;;;;1.40;1.30;;;15.30;84.10;;;;;;5055555;28;20984;-84
2021/05/10 01:51:40;;;;;;;1.40;1.30;;;15.20;84.20;;;;;;5056095;28;20457;-84
2021/05/10 01:54:06;;;;;;;1.70;1.60;;;15.20;84.60;;;;;;5055768;28;20938;-84
2021/05/10 01:56:35;;;;;;;1.27;1.17;;;15.10;85.10;;;;;;5055665;28;21051;-84
2021/05/10 01:59:03;;;;;;;1.50;1.40;;;15.10;86.70;;;;;;5055687;28;20469;-84
2021/05/10 02:01:29;;;;;;;1.40;1.30;;;15.10;86.20;;;;;;5055476;28;20489;-84
2021/05/10 02:03:57;;;;;;;1.40;1.40;;;15.10;86.90;;;;;;5055552;28;20937;-84
2021/05/10 02:06:24;;;;;;;1.50;1.30;;;15.20;87.40;;;;;;5055888;28;20430;-84
2021/05/10 02:08:50;;;;;;;2.30;1.50;;;15.20;89.10;;;;;;5055617;28;20474;-84
2021/05/10 02:11:16;;;;;;;1.60;1.50;;;15.30;90.00;;;;;;5055546;28;20442;-84
2021/05/10 02:13:42;;;;;;;1.60;1.50;;;15.30;88.70;;;;;;5055405;28;20453;-84
2021/05/10 02:16:10;;;;;;;1.30;1.20;;;15.40;86.00;;;;;;5055438;28;20835;-84
2021/05/10 02:18:36;;;;;;;1.47;1.37;;;15.40;82.90;;;;;;5055172;28;20545;-83
2021/05/10 02:21:03;;;;;;;2.30;2.10;;;15.50;83.40;;;;;;5055332;28;20602;-84
2021/05/10 02:23:31;;;;;;;3.00;1.70;;;15.50;82.90;;;;;;5055079;28;20446;-83
2021/05/10 02:25:59;;;;;;;1.60;1.50;;;15.60;79.70;;;;;;5054975;28;20953;-84
2021/05/10 02:28:27;;;;;;;1.50;1.40;;;15.70;82.40;;;;;;5055072;28;20470;-83
2021/05/10 02:30:56;;;;;;;1.57;1.47;;;15.70;84.30;;;;;;5055261;28;20496;-83
2021/05/10 02:33:26;;;;;;;1.40;1.30;;;15.70;84.40;;;;;;5055753;28;20446;-85
2021/05/10 02:35:54;;;;;;;1.47;1.37;;;15.70;83.30;;;;;;5070818;28;20437;-82
2021/05/10 02:38:22;;;;;;;1.20;1.10;;;15.60;84.10;;;;;;5060711;28;20472;-84
2021/05/10 02:40:49;;;;;;;1.50;1.40;;;15.60;85.20;;;;;;5059011;28;20474;-83
2021/05/10 02:43:16;;;;;;;1.47;1.37;;;15.50;85.50;;;;;;5057262;28;20441;-83
2021/05/10 02:45:42;;;;;;;1.73;1.40;;;15.40;85.70;;;;;;5055501;28;20457;-83
2021/05/10 02:48:09;;;;;;;3.00;1.63;;;15.30;86.50;;;;;;5054440;28;20482;-84
2021/05/10 02:50:37;;;;;;;1.50;1.50;;;15.20;87.60;;;;;;5054891;28;20453;-83
2021/05/10 02:53:03;;;;;;;1.43;1.33;;;15.20;88.60;;;;;;5054787;28;20450;-84
2021/05/10 02:55:29;;;;;;;1.13;1.13;;;15.20;88.10;;;;;;5054809;28;20449;-84
2021/05/10 02:57:56;;;;;;;1.50;1.40;;;15.20;87.90;;;;;;5054617;28;20477;-84
2021/05/10 03:00:24;;;;;;;1.60;1.50;;;15.10;87.90;;;;;;5054680;28;20492;-84
2021/05/10 03:02:51;;;;;;;1.60;1.50;;;15.00;88.60;;;;;;5054488;28;20511;-83
2021/05/10 03:05:17;;;;;;;1.50;1.33;;;15.00;88.40;;;;;;5054608;28;20449;-83
2021/05/10 03:07:44;;;;;;;1.53;1.43;;;14.90;88.40;;;;;;5054299;28;20461;-81
2021/05/10 03:10:13;;;;;;;1.67;1.30;;;14.90;87.20;;;;;;5054172;28;20945;-81
2021/05/10 03:12:39;;;;;;;1.30;1.20;;;14.90;87.50;;;;;;5054650;28;20450;-82
2021/05/10 03:15:07;;;;;;;1.80;1.60;;;14.90;87.50;;;;;;5054963;28;20449;-82
2021/05/10 03:17:34;;;;;;;1.90;1.80;;;14.90;88.00;;;;;;5054004;28;20483;-82
2021/05/10 03:20:00;;;;;;;2.53;1.70;;;15.00;90.40;;;;;;5054381;28;20838;-81
2021/05/10 03:22:26;;;;;;;1.93;1.77;;;15.00;90.00;;;;;;5053920;28;20453;-81
2021/05/10 03:24:53;;;;;;;1.40;1.40;;;15.00;89.20;;;;;;5054326;28;20524;-82
2021/05/10 03:27:20;;;;;;;1.73;1.50;;;15.00;88.60;;;;;;5054171;28;20442;-81
2021/05/10 03:29:46;;;;;;;1.20;1.10;;;15.00;88.50;;;;;;5054286;28;20541;-81
2021/05/10 03:32:12;;;;;;;1.20;1.20;;;15.00;89.40;;;;;;5054173;28;20446;-82
2021/05/10 03:34:38;;;;;;;1.40;1.30;;;15.10;87.40;;;;;;5053953;28;20445;-81
2021/05/10 03:37:05;;;;;;;1.50;1.40;;;15.10;86.00;;;;;;5053805;28;20528;-81
2021/05/10 03:39:31;;;;;;;1.40;1.30;;;15.20;85.40;;;;;;5053769;28;20949;-82
2021/05/10 03:41:58;;;;;;;1.53;1.20;;;15.30;87.30;;;;;;5053826;28;20933;-81
2021/05/10 03:44:24;;;;;;;3.23;1.90;;;15.40;89.00;;;;;;5053586;28;20446;-81
2021/05/10 03:46:50;;;;;;;3.00;2.20;;;15.40;88.10;;;;;;5053525;28;21006;-82
2021/05/10 03:49:17;;;;;;;1.73;1.63;;;15.40;90.10;;;;;;5053458;28;20494;-82
2021/05/10 03:51:43;;;;;;;1.70;1.60;;;15.40;90.90;;;;;;5053897;28;20823;-82
2021/05/10 03:54:09;;;;;;;2.00;1.90;;;15.30;91.40;;;;;;5053742;28;20449;-82
2021/05/10 03:56:36;;;;;;;2.00;1.90;;;15.30;91.70;;;;;;5053633;28;20937;-82
2021/05/10 03:59:03;;;;;;;2.50;1.40;;;15.30;91.90;;;;;;5053814;28;20983;-82
2021/05/10 04:01:30;;;;;;;1.60;1.50;;;15.30;91.30;;;;;;5053676;28;20477;-82
2021/05/10 04:04:07;;;;;;;1.60;1.50;;;15.30;90.00;;;;;;5053723;28;20524;-82
2021/05/10 04:09:39;;;;;;;2.60;1.30;;;15.40;89.10;;;;;;4992199;28;20499;-82
2021/05/10 04:14:52;;;;;;;1.83;1.60;;;15.60;88.70;;;;;;5053481;28;20441;-82
2021/05/10 04:17:18;;;;;;;1.40;1.40;;;15.60;86.60;;;;;;5053374;28;20426;-82
2021/05/10 04:19:44;;;;;;;1.50;1.40;;;15.70;86.80;;;;;;5053568;28;20448;-82
2021/05/10 04:22:10;;;;;;;2.30;1.33;;;15.70;84.80;;;;;;5067994;28;20441;-82
2021/05/10 04:24:37;;;;;;;3.40;1.60;;;15.70;83.90;;;;;;5060911;28;20426;-82
2021/05/10 04:27:05;;;;;;;1.70;1.60;;;15.70;85.60;;;;;;5057312;28;20453;-82
2021/05/10 04:29:31;;;;;;;2.53;1.53;;;15.70;87.40;;;;;;5054714;28;20450;-82
2021/05/10 04:31:58;;;;;;;1.63;1.53;;;15.80;88.20;;;;;;5053764;28;20500;-82
2021/05/10 04:34:25;;;;;;;2.03;1.60;;;15.80;89.10;;;;;;5053487;28;20450;-81
2021/05/10 04:36:51;;;;;;;1.20;1.20;;;15.80;85.00;;;;;;5057356;28;20523;-83
2021/05/10 04:39:17;;;;;;;1.30;1.20;;;15.90;81.80;;;;;;5057123;28;20469;-82
2021/05/10 04:41:43;;;;;;;2.13;1.40;;;15.90;82.40;;;;;;5057401;28;20511;-82
2021/05/10 04:44:09;;;;;;;1.70;1.30;;;15.90;84.30;;;;;;5057281;28;20961;-82
2021/05/10 04:46:36;;;;;;;1.60;1.50;;;16.00;86.40;;;;;;5057173;28;20442;-82
2021/05/10 04:49:03;;;;;;;2.50;1.60;;;16.00;84.90;;;;;;5056616;28;20481;-83
2021/05/10 04:51:29;;;;;;;1.50;1.37;;;16.10;86.30;;;;;;5056854;28;21040;-82
2021/05/10 04:53:56;;;;;;;2.33;1.30;;;16.20;86.70;;;;;;5056983;28;20448;-82
2021/05/10 04:56:22;;;;;;;1.60;1.50;;;16.30;86.30;;;;;;5056995;28;20806;-82
2021/05/10 04:58:48;;;;;;;1.60;1.50;;;16.40;88.10;;;;;;5056614;28;20465;-82
2021/05/10 05:01:15;;;;;;;1.73;1.20;;;16.60;89.00;;;;;;5057131;28;20477;-82
2021/05/10 05:03:41;;;;;;;1.83;1.10;;;16.70;88.70;;;;;;5056579;28;20449;-82
2021/05/10 05:06:08;;;;;;;1.50;1.23;;;16.70;86.20;;;;;;5056586;28;20456;-82
2021/05/10 05:08:34;;;;;;;1.17;1.07;;;16.80;84.70;;;;;;5056623;28;20478;-82
2021/05/10 05:11:01;;;;;;;1.10;1.10;;;16.90;86.20;;;;;;5056561;28;20445;-82
2021/05/10 05:13:29;;;;;;;16.17;1.50;;;16.90;86.60;;;;;;5056606;28;20449;-82
2021/05/10 05:15:55;;;;;;;1.77;1.60;;;16.90;86.20;;;;;;5056120;28;20962;-82
2021/05/10 05:18:22;;;;;;;1.10;1.10;;;16.90;86.20;;;;;;5056035;28;20989;-82
2021/05/10 05:20:48;;;;;;;1.73;1.63;;;16.90;86.40;;;;;;5056449;28;20481;-82
2021/05/10 05:23:20;;;;;;;1.93;1.30;;;16.90;86.10;;;;;;5056726;28;20952;-82
2021/05/10 05:25:47;;;;;;;1.40;1.33;;;16.90;85.30;;;;;;5056483;28;20434;-82
2021/05/10 05:28:13;;;;;;;2.93;1.60;;;16.90;85.50;;;;;;5055923;28;20466;-82
2021/05/10 05:30:39;;;;;;;1.67;1.57;;;17.00;86.70;;;;;;5056691;28;20445;-82
2021/05/10 05:33:06;;;;;;;3.10;1.30;;;17.00;84.70;;;;;;5056339;28;20472;-82
2021/05/10 05:35:32;;;;;;;1.37;1.33;;;17.00;83.20;;;;;;5056009;28;20434;-82
2021/05/10 05:37:58;;;;;;;1.43;1.43;;;17.10;81.30;;;;;;5056161;28;20457;-82
2021/05/10 05:40:26;;;;;;;1.40;1.30;;;17.20;81.70;;;;;;5055946;28;20485;-82
2021/05/10 05:42:52;;;;;;;1.80;1.30;;;17.30;80.80;;;;;;5055912;28;20453;-82
2021/05/10 05:45:18;;;;;;;1.23;1.17;;;17.40;81.50;;;;;;5055763;28;20446;-82
2021/05/10 05:47:44;;;;;;;1.70;1.60;;;17.40;81.50;;;;;;5055713;28;20477;-82
2021/05/10 05:50:11;;;;;;;2.33;2.13;;;17.40;80.70;;;;;;5055898;28;20842;-82
2021/05/10 05:52:38;;;;;;;1.20;1.20;;;17.50;82.50;;;;;;5055973;28;20445;-82
2021/05/10 05:55:06;;;;;;;3.40;1.17;;;17.50;82.10;;;;;;5055697;28;20438;-82
2021/05/10 05:57:33;;;;;;;1.27;1.13;;;17.60;82.50;;;;;;5055678;28;20543;-82
2021/05/10 06:00:01;;;;;;;1.30;1.20;;;17.60;82.90;;;;;;5055601;28;20446;-82
2021/05/10 06:02:28;;;;;;;1.00;1.00;;;17.60;84.50;;;;;;5055594;28;20454;-81
2021/05/10 06:04:54;;;;;;;1.67;1.43;;;17.60;84.50;;;;;;5055576;28;20462;-82
2021/05/10 06:07:21;;;;;;;1.10;1.10;;;17.60;85.70;;;;;;5056959;28;20829;-82
2021/05/10 06:09:47;;;;;;;1.53;1.20;;;17.50;84.80;;;;;;5065000;28;20450;-82
2021/05/10 06:12:14;;;;;;;1.47;1.37;;;17.50;83.30;;;;;;5059950;28;20461;-82
2021/05/10 06:14:41;;;;;;;1.30;1.20;;;17.60;84.30;;;;;;5056929;28;20454;-82
2021/05/10 06:17:07;;;;;;;1.60;1.10;;;17.60;84.00;;;;;;5056077;28;20461;-82
2021/05/10 06:19:34;;;;;;;1.13;1.13;;;17.60;84.70;;;;;;5056513;28;20437;-82
2021/05/10 06:22:01;;;;;;;1.03;1.03;;;17.60;84.20;;;;;;5055974;28;20493;-82
2021/05/10 06:24:27;;;;;;;1.90;1.70;;;17.60;85.40;;;;;;5054937;28;20453;-82
2021/05/10 06:26:53;;;;;;;1.50;1.40;;;17.60;85.60;;;;;;5055244;28;20445;-82
2021/05/10 06:29:20;;;;;;;1.77;1.67;;;17.60;87.80;;;;;;5055224;28;20552;-83
2021/05/10 06:31:47;;;;;;;4.40;1.80;;;17.70;88.90;;;;;;5055481;28;20442;-83
2021/05/10 06:34:13;;;;;;;3.40;2.23;;;17.80;88.50;;;;;;5055156;28;20442;-83
2021/05/10 06:36:40;;;;;;;2.50;2.27;;;17.90;87.50;;;;;;5054919;28;20460;-82
2021/05/10 06:39:06;;;;;;;2.30;1.87;;;17.90;87.50;;;;;;5054995;28;20462;-83
2021/05/10 06:41:32;;;;;;;3.27;1.73;;;18.10;88.90;;;;;;5055033;28;20468;-83
2021/05/10 06:43:59;;;;;;;3.43;1.90;;;18.20;88.80;;;;;;5054933;28;20433;-83
2021/05/10 06:46:25;;;;;;;2.50;2.30;;;18.40;87.50;;;;;;5054994;28;20469;-83
2021/05/10 06:48:52;;;;;;;5.33;2.67;;;18.50;86.80;;;;;;5054408;28;20485;-83
2021/05/10 06:51:18;;;;;;;5.77;2.13;;;18.60;87.40;;;;;;5054619;28;20483;-85
2021/05/10 06:53:44;;;;;;;2.97;2.30;;;18.60;86.50;;;;;;5054451;28;20410;-83
2021/05/10 06:56:11;;;;;;;4.30;2.47;;;18.70;86.30;;;;;;5054851;28;20481;-83
2021/05/10 06:58:37;;;;;;;3.50;2.20;;;18.70;89.00;;;;;;5053662;28;20457;-83
2021/05/10 07:01:03;;;;;;;1.97;1.87;;;18.70;89.60;;;;;;5054998;28;20469;-83
2021/05/10 07:03:29;;;;;;;2.30;1.50;;;18.80;90.30;;;;;;5054584;28;20434;-83
2021/05/10 07:05:56;;;;;;;3.30;2.13;;;18.80;90.60;;;;;;5054901;28;20811;-83
2021/05/10 07:08:23;;;;;;;1.93;1.43;;;18.90;91.10;;;;;;5054802;28;20476;-83
2021/05/10 07:10:51;;;;;;;1.70;1.60;;;19.20;91.00;;;;;;5054733;28;20431;-83
2021/05/10 07:13:18;;;;;;;1.60;1.50;;;19.90;85.90;;;;;;5054712;28;20430;-83
2021/05/10 07:15:45;;;;;;;2.03;1.30;;;20.70;80.30;;;;;;5054831;28;20410;-83
2021/05/10 07:18:13;;;;;;;1.80;1.70;;;21.50;78.70;;;;;;5054375;28;20891;-83
2021/05/10 07:20:42;;;;;;;1.80;1.43;;;21.90;73.90;;;;;;5055148;28;20504;-83
2021/05/10 07:23:09;;;;;;;1.47;1.37;;;21.90;73.70;;;;;;5054461;28;20845;-83
2021/05/10 07:25:41;;;;;;;2.00;1.80;;;21.80;73.90;;;;;;5054385;28;20430;-84
2021/05/10 07:28:08;;;;;;;2.80;1.70;;;21.70;74.70;;;;;;5054452;28;20521;-84
2021/05/10 07:30:35;;;;;;;1.47;1.37;;;22.40;76.10;;;;;;5054573;28;20834;-84
2021/05/10 07:33:01;;;;;;;3.20;1.42;;;23.30;73.00;;;;;;5054439;28;20179;-84
2021/05/10 07:35:27;;;;;;;4.32;1.73;;;23.90;69.50;;;;;;5055401;28;20187;-84
2021/05/10 07:37:54;;;;;;;2.00;1.90;;;24.40;69.40;;;;;;5054610;28;20222;-86
2021/05/10 07:40:23;;;;;;;2.88;1.42;;;25.90;66.00;;;;;;5054603;28;20207;-87
2021/05/10 07:42:49;;;;;;;1.98;1.58;;;27.90;60.70;;;;;;5054618;28;20195;-86
2021/05/10 07:45:16;;;;;;;1.60;1.50;;;29.90;56.20;;;;;;5054666;28;20180;-86
2021/05/10 07:47:43;;;;;;;3.17;1.40;;;31.30;53.60;;;;;;5054134;28;20240;-86
2021/05/10 07:50:10;;;;;;;1.60;1.50;;;31.40;50.70;;;;;;5054506;28;20200;-86
2021/05/10 07:52:37;;;;;;;3.67;1.50;;;30.50;49.80;;;;;;5054959;28;20202;-86
2021/05/10 07:55:04;;;;;;;3.40;1.40;;;29.10;52.10;;;;;;5054892;28;20187;-86
2021/05/10 07:57:31;;;;;;;2.85;1.30;;;27.70;54.10;;;;;;5063286;28;20223;-84
2021/05/10 07:59:58;;;;;;;3.17;1.63;;;26.30;57.80;;;;;;5070524;28;20645;-86
2021/05/10 08:02:24;;;;;;;1.80;1.70;;;26.30;59.40;;;;;;5060386;28;20202;-86
2021/05/10 08:04:54;;;;;;;2.13;1.92;;;28.00;56.40;;;;;;5058190;28;20254;-86
2021/05/10 08:07:20;;;;;;;2.33;1.40;;;29.80;53.40;;;;;;5058450;28;20644;-86
2021/05/10 08:09:48;;;;;;;1.60;1.50;;;31.10;50.30;;;;;;5055681;28;20191;-86
2021/05/10 08:12:14;;;;;;;1.52;1.52;;;32.70;47.70;;;;;;5054490;28;20193;-86
2021/05/10 08:14:41;;;;;;;2.90;1.70;;;33.30;45.20;;;;;;5054785;28;20184;-86
2021/05/10 08:17:08;;;;;;;3.05;1.58;;;32.40;45.50;;;;;;5054459;28;20241;-86
2021/05/10 08:19:35;;;;;;;1.70;1.60;;;31.00;46.30;;;;;;5055038;28;20187;-86
2021/05/10 08:22:03;;;;;;;2.90;1.30;;;29.30;48.70;;;;;;5054342;28;20257;-86
2021/05/10 08:24:30;;;;;;;1.80;1.60;;;27.90;51.30;;;;;;5054108;28;20627;-88
2021/05/10 08:26:56;;;;;;;1.55;1.45;;;26.70;54.20;;;;;;5054284;28;20193;-86
2021/05/10 08:29:22;;;;;;;1.73;1.63;;;25.60;56.90;;;;;;5053982;28;20305;-85
2021/05/10 08:31:50;;;;;;;2.25;1.50;;;24.90;59.40;;;;;;5054423;28;20195;-86
2021/05/10 08:34:17;;;;;;;2.13;1.70;;;24.20;60.80;;;;;;5054279;28;20217;-85
2021/05/10 08:36:44;;;;;;;2.00;1.55;;;23.60;62.40;;;;;;5054177;28;20207;-85
2021/05/10 08:39:10;;;;;;;1.45;1.35;;;23.10;64.30;;;;;;5053969;28;20222;-85
2021/05/10 08:41:38;;;;;;;2.35;2.17;;;22.80;66.70;;;;;;5053944;28;20222;-85
2021/05/10 08:44:05;;;;;;;1.83;1.40;;;22.40;67.90;;;;;;5054219;28;20252;-86
2021/05/10 08:46:32;;;;;;;1.90;1.80;;;22.50;68.60;;;;;;5054242;28;20203;-86
2021/05/10 08:48:59;;;;;;;3.78;1.80;;;23.10;68.60;;;;;;5053795;28;20238;-88
2021/05/10 08:51:26;;;;;;;2.50;1.92;;;23.50;66.50;;;;;;5053866;28;20201;-81
2021/05/10 08:53:52;;;;;;;1.77;1.67;;;23.60;65.10;;;;;;5053675;28;20183;-88
2021/05/10 08:56:19;;;;;;;1.80;1.70;;;23.40;64.90;;;;;;5054407;28;20258;-87
2021/05/10 08:58:47;;;;;;;2.15;1.75;;;23.20;65.00;;;;;;5054950;28;20597;-86
2021/05/10 09:01:14;;;;;;;3.22;2.92;;;23.00;66.20;;;;;;5055084;28;20218;-86
2021/05/10 09:03:42;;;;;;;2.22;1.60;;;23.00;67.50;;;;;;5054341;28;20203;-88
2021/05/10 09:06:12;;;;;;;2.13;1.90;;;23.00;67.50;;;;;;5053312;28;20206;-85
2021/05/10 09:08:40;;;;;;;3.00;1.95;;;23.20;66.10;;;;;;5053979;28;20258;-85
2021/05/10 09:11:08;;;;;;;3.75;1.77;;;23.40;67.40;;;;;;5053830;28;20205;-84
2021/05/10 09:13:40;;;;;;;1.92;1.70;;;23.60;66.50;;;;;;5053653;28;20201;-89
2021/05/10 09:16:07;;;;;;;2.33;2.22;;;23.80;67.20;;;;;;5053516;28;20234;-86
2021/05/10 09:18:33;;;;;;;1.85;1.70;;;23.90;67.10;;;;;;5053705;28;20578;-85
2021/05/10 09:21:11;;;;;;;2.33;1.73;;;24.00;65.10;;;;;;5054529;28;20280;-88
2021/05/10 09:23:37;;;;;;;2.65;2.10;;;24.30;64.80;;;;;;5057618;28;20601;-88
2021/05/10 09:26:04;;;;;;;2.42;1.70;;;24.60;63.80;;;;;;5057394;28;20217;-87
2021/05/10 09:28:37;;;;;;;1.70;1.60;;;24.80;63.80;;;;;;5057076;28;20234;-86
2021/05/10 09:31:06;;;;;;;1.75;1.45;;;25.10;63.80;;;;;;5057491;28;20187;-85
2021/05/10 09:33:33;;;;;;;3.10;2.00;;;25.40;62.70;;;;;;5057062;28;20207;-86
2021/05/10 09:36:02;;;;;;;2.45;1.63;;;25.60;60.30;;;;;;5057446;28;20539;-85
2021/05/10 09:38:30;;;;;;;2.85;2.20;;;25.80;61.80;;;;;;5057095;28;20222;-90
2021/05/10 09:40:58;;;;;;;5.88;2.88;;;26.00;60.90;;;;;;5057044;28;20257;-92
2021/05/10 09:43:26;;;;;;;3.55;2.83;;;26.00;60.50;;;;;;5057157;28;20206;-91
2021/05/10 09:45:53;;;;;;;2.80;2.13;;;26.10;60.10;;;;;;5057290;28;20199;-88
2021/05/10 09:48:23;;;;;;;1.83;1.73;;;26.30;60.20;;;;;;5058516;28;20238;-86
2021/05/10 09:50:55;;;;;;;2.95;1.98;;;26.60;60.10;;;;;;5074541;28;20193;-88
2021/05/10 09:53:39;;;;;;;2.20;2.10;;;26.90;59.30;;;;;;5067900;28;20210;-88
2021/05/10 09:56:07;;;;;;;3.58;2.78;;;26.70;59.90;;;;;;5061971;28;20322;-87
2021/05/10 09:58:42;;;;;;;3.50;2.55;;;26.30;59.80;;;;;;5058639;28;20248;-87
2021/05/10 10:01:10;;;;;;;1.80;1.70;;;26.00;60.70;;;;;;5057705;28;20225;-88
2021/05/10 10:03:41;;;;;;;1.48;1.48;;;25.70;62.80;;;;;;5056984;28;20191;-89
2021/05/10 10:06:10;;;;;;;2.05;1.77;;;25.40;62.10;;;;;;5056780;28;20195;-89
2021/05/10 10:08:38;;;;;;;2.05;1.95;;;25.00;63.10;;;;;;5058365;28;20253;-90
2021/05/10 10:11:08;;;;;;;1.50;1.40;;;24.70;63.90;;;;;;5058898;28;20195;-91
2021/05/10 10:13:36;;;;;;;1.52;1.42;;;24.60;65.40;;;;;;5058837;28;20575;-90
2021/05/10 10:16:03;;;;;;;2.15;1.33;;;24.40;65.50;;;;;;5057129;28;20190;-91
2021/05/10 10:18:30;;;;;;;1.40;1.30;;;24.30;64.60;;;;;;5060420;28;20222;-88
2021/05/10 10:20:59;;;;;;;2.10;1.42;;;24.30;66.00;;;;;;5057824;28;20260;-91
2021/05/10 10:23:27;;;;;;;1.55;1.42;;;24.50;65.00;;;;;;5056600;28;20195;-91
2021/05/10 10:25:57;;;;;;;1.65;1.52;;;24.50;64.10;;;;;;5056559;28;20237;-90
2021/05/10 10:28:24;;;;;;;1.48;1.35;;;24.80;64.00;;;;;;5056554;28;20281;-91
2021/05/10 10:30:59;;;;;;;1.30;1.20;;;25.10;62.50;;;;;;5057050;28;20682;-91
2021/05/10 10:33:35;;;;;;;1.42;1.30;;;25.70;62.80;;;;;;5056266;28;20186;-91
2021/05/10 10:36:05;;;;;;;1.23;1.08;;;26.10;60.70;;;;;;5056489;28;20183;-90
2021/05/10 10:38:33;;;;;;;2.65;1.27;;;26.20;59.20;;;;;;5055992;28;20582;-88
2021/05/10 10:41:17;;;;;;;1.40;1.30;;;26.10;60.50;;;;;;5056612;28;20242;-89
2021/05/10 10:43:45;;;;;;;1.83;1.38;;;26.00;60.60;;;;;;5060950;28;20578;-87
2021/05/10 10:46:23;;;;;;;1.35;1.13;;;25.80;60.00;;;;;;5060692;28;20183;-89
2021/05/10 10:48:51;;;;;;;0.88;0.85;;;25.50;61.20;;;;;;5056642;28;20239;-90
2021/05/10 10:51:19;;;;;;;1.50;1.10;;;25.20;61.80;;;;;;5056044;28;20189;-91
2021/05/10 10:53:46;;;;;;;0.93;0.82;;;24.90;63.30;;;;;;5055447;28;20210;-90
2021/05/10 10:56:14;;;;;;;0.98;0.98;;;24.60;63.20;;;;;;5055830;28;20179;-91
2021/05/10 10:58:43;;;;;;;1.48;1.00;;;24.50;63.40;;;;;;5055562;28;20226;-90
2021/05/10 11:01:19;;;;;;;0.85;0.85;;;24.50;64.00;;;;;;5055247;28;20215;-89
2021/05/10 11:03:46;;;;;;;0.90;0.90;;;24.40;64.10;;;;;;5056226;28;20309;-92
2021/05/10 11:06:12;;;;;;;2.08;0.90;;;24.20;64.80;;;;;;5055701;28;20634;-90
2021/05/10 11:08:50;;;;;;;1.10;1.00;;;24.00;64.90;;;;;;5055155;28;20758;-91
2021/05/10 11:11:39;;;;;;;2.35;1.00;;;23.60;65.10;;;;;;5055303;28;20245;-91
2021/05/10 11:14:12;;;;;;;1.50;1.40;;;23.30;66.50;;;;;;5055631;28;20199;-91
2021/05/10 11:16:53;;;;;;;1.10;1.00;;;22.90;67.00;;;;;;5055169;28;20203;-90
2021/05/10 11:19:35;;;;;;;1.93;1.10;;;22.70;67.20;;;;;;5055015;28;20249;-91
2021/05/10 11:22:23;;;;;;;1.13;1.10;;;22.60;68.10;;;;;;5054671;28;20469;-89
2021/05/10 11:24:49;;;;;;;1.83;1.10;;;22.60;68.60;;;;;;5055096;28;20802;-90
2021/05/10 11:27:24;;;;;;;1.73;1.10;;;22.40;66.90;;;;;;5054992;28;20439;-91
2021/05/10 11:29:51;;;;;;;2.50;1.30;;;22.10;69.20;;;;;;5055211;28;20887;-89
2021/05/10 11:32:31;;;;;;;2.43;0.87;;;21.80;69.60;;;;;;5055002;28;20430;-89
2021/05/10 11:35:24;;;;;;;0.90;0.90;;;21.50;70.00;;;;;;5054534;28;20502;-90
2021/05/10 11:37:59;;;;;;;1.20;1.10;;;21.20;70.90;;;;;;5054900;28;20870;-90
2021/05/10 11:40:26;;;;;;;1.03;0.90;;;21.00;71.60;;;;;;5054513;28;20433;-90
2021/05/10 11:42:52;;;;;;;0.80;0.80;;;20.80;72.20;;;;;;5054828;28;20414;-91
2021/05/10 11:45:19;;;;;;;1.20;1.10;;;20.80;72.20;;;;;;5058455;28;20446;-90
2021/05/10 11:47:50;;;;;;;1.30;0.77;;;20.70;72.70;;;;;;5072482;28;20459;-89
2021/05/10 11:50:17;;;;;;;1.13;0.80;;;20.70;73.40;;;;;;5066482;28;20917;-91
2021/05/10 11:52:43;;;;;;;1.03;1.00;;;20.70;74.10;;;;;;5060796;28;20445;-90
2021/05/10 11:55:11;;;;;;;2.13;0.90;;;20.70;73.90;;;;;;5057143;28;20467;-88
2021/05/10 11:57:41;;;;;;;0.87;0.80;;;20.70;75.40;;;;;;5055905;28;20476;-90
2021/05/10 12:00:12;;;;;;;1.67;1.10;;;20.60;75.10;;;;;;5055163;28;20433;-88
2021/05/10 12:02:41;;;;;;;1.07;0.70;;;20.60;74.00;;;;;;5054453;28;20478;-89
2021/05/10 12:05:10;;;;;;;1.10;1.00;;;20.50;73.90;;;;;;5054916;28;20477;-90
2021/05/10 12:07:37;;;;;;;1.63;0.80;;;20.40;73.80;;;;;;5054753;28;20462;-89
2021/05/10 12:10:04;;;;;;;1.17;0.90;;;20.40;72.90;;;;;;5054394;28;20441;-89
2021/05/10 12:12:36;;;;;;;3.03;0.90;;;20.40;75.00;;;;;;5054742;28;20421;-88
2021/05/10 12:15:12;;;;;;;0.83;0.83;;;20.30;74.40;;;;;;5057894;28;20974;-89
2021/05/10 12:17:43;;;;;;;0.97;0.80;;;20.40;74.90;;;;;;5059401;28;20850;-89
2021/05/10 12:20:12;;;;;;;2.00;0.90;;;20.30;74.40;;;;;;5055362;28;20453;-90
2021/05/10 12:22:40;;;;;;;4.63;1.00;;;20.30;74.50;;;;;;5054388;28;20511;-88
2021/05/10 12:25:16;;;;;;;0.90;0.90;;;20.40;75.50;;;;;;5054546;28;20456;-89
2021/05/10 12:27:50;;;;;;;1.00;0.90;;;20.40;75.10;;;;;;5054050;28;20457;-88
2021/05/10 12:30:25;;;;;;;0.80;0.80;;;20.30;73.90;;;;;;5054557;28;20410;-88
2021/05/10 12:32:54;;;;;;;1.70;1.57;;;20.30;75.20;;;;;;5054100;28;20939;-89
2021/05/10 12:35:23;;;;;;;0.80;0.70;;;20.40;74.80;;;;;;5054621;28;20448;-89
2021/05/10 12:37:51;;;;;;;0.70;0.70;;;20.40;74.90;;;;;;5053876;28;20457;-90
2021/05/10 12:40:19;;;;;;;0.70;0.70;;;20.40;74.40;;;;;;5054525;28;20933;-91
2021/05/10 12:43:01;;;;;;;0.70;0.70;;;20.40;74.60;;;;;;5054354;28;20907;-88
2021/05/10 12:45:27;;;;;;;3.63;0.67;;;20.40;74.90;;;;;;5054178;28;20414;-90
2021/05/10 12:47:55;;;;;;;0.73;0.73;;;20.50;75.10;;;;;;5053911;28;20488;-89
2021/05/10 12:50:37;;;;;;;0.90;0.90;;;20.50;74.40;;;;;;5054880;28;20457;-88
2021/05/10 12:53:05;;;;;;;0.90;0.70;;;20.40;74.30;;;;;;5053934;28;20491;-88
2021/05/10 12:55:32;;;;;;;0.63;0.63;;;20.50;73.70;;;;;;5054184;28;20442;-89
2021/05/10 12:58:00;;;;;;;0.60;0.60;;;20.50;74.60;;;;;;5057900;28;20467;-88